sensor_id;sensor_type;location;lat;lon;timestamp;pressure;altitude;pressure_sealevel;temperature;humidity
22743;BME280;11538;48.884;8.696;2023-06-22T00:00:12;98732.34;;;22.17;100.00
22743;BME280;11538;48.884;8.696;2023-06-22T00:02:39;98735.06;;;22.14;100.00
22743;BME280;11538;48.884;8.696;2023-06-22T00:05:07;98730.38;;;22.18;100.00
22743;BME280;11538;48.884;8.696;2023-06-22T00:07:33;98730.81;;;22.24;100.00
22743;BME280;11538;48.884;8.696;2023-06-22T00:10:00;98725.31;;;22.24;100.00
22743;BME280;11538;48.884;8.696;2023-06-22T00:12:27;98722.19;;;22.29;100.00
22743;BME280;11538;48.884;8.696;2023-06-22T00:14:54;98735.66;;;22.34;100.00
22743;BME280;11538;48.884;8.696;2023-06-22T00:17:21;98739.13;;;22.24;100.00
22743;BME280;11538;48.884;8.696;2023-06-22T00:19:48;98737.00;;;22.10;100.00
22743;BME280;11538;48.884;8.696;2023-06-22T00:22:20;98731.53;;;22.17;100.00
22743;BME280;11538;48.884;8.696;2023-06-22T00:24:56;98733.03;;;22.07;100.00
22743;BME280;11538;48.884;8.696;2023-06-22T00:27:23;98746.00;;;22.03;100.00
22743;BME280;11538;48.884;8.696;2023-06-22T00:29:50;98750.22;;;21.93;100.00
22743;BME280;11538;48.884;8.696;2023-06-22T00:32:17;98774.94;;;21.82;100.00
22743;BME280;11538;48.884;8.696;2023-06-22T00:34:45;98804.56;;;21.85;100.00
22743;BME280;11538;48.884;8.696;2023-06-22T00:37:12;98839.34;;;21.90;100.00
22743;BME280;11538;48.884;8.696;2023-06-22T00:39:39;98899.03;;;21.98;100.00
22743;BME280;11538;48.884;8.696;2023-06-22T00:42:06;98896.88;;;22.15;100.00
22743;BME280;11538;48.884;8.696;2023-06-22T00:44:33;98861.13;;;22.29;100.00
22743;BME280;11538;48.884;8.696;2023-06-22T00:47:00;98840.25;;;22.32;100.00
22743;BME280;11538;48.884;8.696;2023-06-22T00:49:27;98822.44;;;22.29;100.00
22743;BME280;11538;48.884;8.696;2023-06-22T00:51:56;98810.47;;;22.18;100.00
22743;BME280;11538;48.884;8.696;2023-06-22T00:54:24;98791.47;;;22.13;100.00
22743;BME280;11538;48.884;8.696;2023-06-22T00:56:54;98780.28;;;21.98;100.00
22743;BME280;11538;48.884;8.696;2023-06-22T00:59:24;98758.44;;;21.86;100.00
22743;BME280;11538;48.884;8.696;2023-06-22T01:01:53;98752.50;;;21.84;100.00
22743;BME280;11538;48.884;8.696;2023-06-22T01:04:24;98745.72;;;21.77;100.00
22743;BME280;11538;48.884;8.696;2023-06-22T01:07:10;98738.19;;;21.74;100.00
22743;BME280;11538;48.884;8.696;2023-06-22T01:09:57;98759.53;;;21.77;100.00
22743;BME280;11538;48.884;8.696;2023-06-22T01:12:30;98763.81;;;21.75;100.00
22743;BME280;11538;48.884;8.696;2023-06-22T01:15:18;98763.03;;;21.74;100.00
22743;BME280;11538;48.884;8.696;2023-06-22T01:17:49;98765.41;;;21.76;100.00
22743;BME280;11538;48.884;8.696;2023-06-22T01:20:20;98766.63;;;21.79;100.00
22743;BME280;11538;48.884;8.696;2023-06-22T01:23:19;98759.44;;;21.70;100.00
22743;BME280;11538;48.884;8.696;2023-06-22T01:25:57;98754.56;;;21.60;100.00
22743;BME280;11538;48.884;8.696;2023-06-22T01:31:10;98751.13;;;21.40;100.00
22743;BME280;11538;48.884;8.696;2023-06-22T01:33:43;98761.28;;;21.32;100.00
22743;BME280;11538;48.884;8.696;2023-06-22T01:36:11;98774.75;;;21.37;100.00
22743;BME280;11538;48.884;8.696;2023-06-22T01:38:39;98770.88;;;21.42;100.00
22743;BME280;11538;48.884;8.696;2023-06-22T01:41:06;98768.50;;;21.40;100.00
22743;BME280;11538;48.884;8.696;2023-06-22T01:43:35;98765.41;;;21.45;100.00
22743;BME280;11538;48.884;8.696;2023-06-22T01:46:04;98767.13;;;21.57;100.00
22743;BME280;11538;48.884;8.696;2023-06-22T01:48:31;98768.59;;;21.47;100.00
22743;BME280;11538;48.884;8.696;2023-06-22T01:50:59;98775.53;;;21.38;100.00
22743;BME280;11538;48.884;8.696;2023-06-22T01:53:26;98776.25;;;21.31;100.00
22743;BME280;11538;48.884;8.696;2023-06-22T01:55:53;98788.47;;;21.33;100.00
22743;BME280;11538;48.884;8.696;2023-06-22T01:58:22;98788.34;;;21.23;100.00
22743;BME280;11538;48.884;8.696;2023-06-22T02:01:02;98788.28;;;21.19;100.00
22743;BME280;11538;48.884;8.696;2023-06-22T02:03:42;98791.09;;;21.23;100.00
22743;BME280;11538;48.884;8.696;2023-06-22T02:06:24;98792.31;;;21.25;100.00
22743;BME280;11538;48.884;8.696;2023-06-22T02:08:59;98781.06;;;21.11;100.00
22743;BME280;11538;48.884;8.696;2023-06-22T02:11:30;98783.00;;;21.10;100.00
22743;BME280;11538;48.884;8.696;2023-06-22T02:13:58;98791.25;;;21.07;100.00
22743;BME280;11538;48.884;8.696;2023-06-22T02:16:26;98775.06;;;21.05;100.00
22743;BME280;11538;48.884;8.696;2023-06-22T02:18:56;98769.88;;;21.00;100.00
22743;BME280;11538;48.884;8.696;2023-06-22T02:21:30;98775.69;;;20.95;100.00
22743;BME280;11538;48.884;8.696;2023-06-22T02:23:58;98776.31;;;20.84;100.00
22743;BME280;11538;48.884;8.696;2023-06-22T02:26:26;98768.28;;;20.75;100.00
22743;BME280;11538;48.884;8.696;2023-06-22T02:28:54;98767.13;;;20.77;100.00
22743;BME280;11538;48.884;8.696;2023-06-22T02:31:21;98759.03;;;20.87;100.00
22743;BME280;11538;48.884;8.696;2023-06-22T02:33:48;98748.94;;;20.95;100.00
22743;BME280;11538;48.884;8.696;2023-06-22T02:36:15;98760.06;;;21.02;100.00
22743;BME280;11538;48.884;8.696;2023-06-22T02:38:43;98755.34;;;21.03;100.00
22743;BME280;11538;48.884;8.696;2023-06-22T02:41:17;98754.69;;;20.86;100.00
22743;BME280;11538;48.884;8.696;2023-06-22T02:43:47;98763.50;;;20.72;100.00
22743;BME280;11538;48.884;8.696;2023-06-22T02:46:14;98767.38;;;20.68;100.00
22743;BME280;11538;48.884;8.696;2023-06-22T02:48:41;98773.56;;;20.61;100.00
22743;BME280;11538;48.884;8.696;2023-06-22T02:51:11;98757.63;;;20.51;100.00
22743;BME280;11538;48.884;8.696;2023-06-22T02:53:38;98756.44;;;20.52;100.00
22743;BME280;11538;48.884;8.696;2023-06-22T02:56:05;98750.47;;;20.46;100.00
22743;BME280;11538;48.884;8.696;2023-06-22T02:58:32;98753.66;;;20.48;100.00
22743;BME280;11538;48.884;8.696;2023-06-22T03:01:05;98749.09;;;20.36;100.00
22743;BME280;11538;48.884;8.696;2023-06-22T03:03:32;98749.84;;;20.33;100.00
22743;BME280;11538;48.884;8.696;2023-06-22T03:06:00;98747.81;;;20.30;100.00
22743;BME280;11538;48.884;8.696;2023-06-22T03:08:28;98740.41;;;20.34;100.00
22743;BME280;11538;48.884;8.696;2023-06-22T03:10:56;98736.63;;;20.42;100.00
22743;BME280;11538;48.884;8.696;2023-06-22T03:13:23;98738.28;;;20.47;100.00
22743;BME280;11538;48.884;8.696;2023-06-22T03:15:50;98729.94;;;20.43;100.00
22743;BME280;11538;48.884;8.696;2023-06-22T03:18:17;98734.28;;;20.44;100.00
22743;BME280;11538;48.884;8.696;2023-06-22T03:20:44;98736.94;;;20.37;100.00
22743;BME280;11538;48.884;8.696;2023-06-22T03:23:11;98721.22;;;20.38;100.00
22743;BME280;11538;48.884;8.696;2023-06-22T03:25:38;98721.56;;;20.36;100.00
22743;BME280;11538;48.884;8.696;2023-06-22T03:28:05;98721.94;;;20.35;100.00
22743;BME280;11538;48.884;8.696;2023-06-22T03:30:32;98727.03;;;20.33;100.00
22743;BME280;11538;48.884;8.696;2023-06-22T03:32:59;98725.44;;;20.31;100.00
22743;BME280;11538;48.884;8.696;2023-06-22T03:35:26;98730.63;;;20.37;100.00
22743;BME280;11538;48.884;8.696;2023-06-22T03:37:53;98734.25;;;20.41;100.00
22743;BME280;11538;48.884;8.696;2023-06-22T03:40:20;98718.56;;;20.45;100.00
22743;BME280;11538;48.884;8.696;2023-06-22T03:42:47;98725.28;;;20.48;100.00
22743;BME280;11538;48.884;8.696;2023-06-22T03:45:14;98726.75;;;20.41;100.00
22743;BME280;11538;48.884;8.696;2023-06-22T03:47:41;98725.91;;;20.37;100.00
22743;BME280;11538;48.884;8.696;2023-06-22T03:50:08;98721.50;;;20.33;100.00
22743;BME280;11538;48.884;8.696;2023-06-22T03:52:38;98714.03;;;20.33;100.00
22743;BME280;11538;48.884;8.696;2023-06-22T03:55:06;98720.28;;;20.30;100.00
22743;BME280;11538;48.884;8.696;2023-06-22T03:57:33;98722.06;;;20.42;100.00
22743;BME280;11538;48.884;8.696;2023-06-22T04:00:01;98724.75;;;20.38;100.00
22743;BME280;11538;48.884;8.696;2023-06-22T04:02:32;98715.50;;;20.27;100.00
22743;BME280;11538;48.884;8.696;2023-06-22T04:04:59;98716.63;;;20.22;100.00
22743;BME280;11538;48.884;8.696;2023-06-22T04:07:29;98709.53;;;20.21;100.00
22743;BME280;11538;48.884;8.696;2023-06-22T04:09:56;98711.84;;;20.19;100.00
22743;BME280;11538;48.884;8.696;2023-06-22T04:12:23;98703.16;;;20.17;100.00
22743;BME280;11538;48.884;8.696;2023-06-22T04:14:50;98698.25;;;20.07;100.00
22743;BME280;11538;48.884;8.696;2023-06-22T04:17:17;98706.81;;;20.01;100.00
22743;BME280;11538;48.884;8.696;2023-06-22T04:19:49;98712.38;;;20.05;100.00
22743;BME280;11538;48.884;8.696;2023-06-22T04:22:16;98695.50;;;20.07;100.00
22743;BME280;11538;48.884;8.696;2023-06-22T04:24:44;98690.84;;;20.11;100.00
22743;BME280;11538;48.884;8.696;2023-06-22T04:27:12;98680.75;;;20.19;100.00
22743;BME280;11538;48.884;8.696;2023-06-22T04:29:39;98680.94;;;20.29;100.00
22743;BME280;11538;48.884;8.696;2023-06-22T04:32:16;98676.31;;;20.37;100.00
22743;BME280;11538;48.884;8.696;2023-06-22T04:34:43;98690.59;;;20.43;100.00
22743;BME280;11538;48.884;8.696;2023-06-22T04:37:10;98682.44;;;20.50;100.00
22743;BME280;11538;48.884;8.696;2023-06-22T04:39:43;98685.75;;;20.59;100.00
22743;BME280;11538;48.884;8.696;2023-06-22T04:42:10;98679.56;;;20.66;100.00
22743;BME280;11538;48.884;8.696;2023-06-22T04:44:37;98684.00;;;20.74;100.00
22743;BME280;11538;48.884;8.696;2023-06-22T04:47:06;98673.75;;;20.75;100.00
22743;BME280;11538;48.884;8.696;2023-06-22T04:49:36;98673.88;;;20.79;100.00
22743;BME280;11538;48.884;8.696;2023-06-22T04:52:10;98669.94;;;20.80;100.00
22743;BME280;11538;48.884;8.696;2023-06-22T04:54:39;98668.38;;;20.82;100.00
22743;BME280;11538;48.884;8.696;2023-06-22T04:57:08;98667.81;;;20.96;100.00
22743;BME280;11538;48.884;8.696;2023-06-22T04:59:38;98674.63;;;21.06;100.00
22743;BME280;11538;48.884;8.696;2023-06-22T05:02:06;98676.53;;;21.02;100.00
22743;BME280;11538;48.884;8.696;2023-06-22T05:04:33;98672.75;;;21.14;100.00
22743;BME280;11538;48.884;8.696;2023-06-22T05:07:03;98671.22;;;21.16;100.00
22743;BME280;11538;48.884;8.696;2023-06-22T05:09:30;98670.47;;;21.19;100.00
22743;BME280;11538;48.884;8.696;2023-06-22T05:11:57;98677.69;;;21.28;100.00
22743;BME280;11538;48.884;8.696;2023-06-22T05:14:24;98664.41;;;21.37;100.00
22743;BME280;11538;48.884;8.696;2023-06-22T05:16:51;98660.47;;;21.38;100.00
22743;BME280;11538;48.884;8.696;2023-06-22T05:19:25;98652.63;;;21.44;100.00
22743;BME280;11538;48.884;8.696;2023-06-22T05:22:01;98646.78;;;21.49;100.00
22743;BME280;11538;48.884;8.696;2023-06-22T05:24:28;98647.19;;;21.47;100.00
22743;BME280;11538;48.884;8.696;2023-06-22T05:26:55;98648.00;;;21.52;100.00
22743;BME280;11538;48.884;8.696;2023-06-22T05:29:40;98642.56;;;21.59;100.00
22743;BME280;11538;48.884;8.696;2023-06-22T05:32:24;98645.44;;;21.66;100.00
22743;BME280;11538;48.884;8.696;2023-06-22T05:35:09;98644.28;;;21.71;100.00
22743;BME280;11538;48.884;8.696;2023-06-22T05:37:36;98647.50;;;21.76;100.00
22743;BME280;11538;48.884;8.696;2023-06-22T05:40:03;98647.47;;;21.73;100.00
22743;BME280;11538;48.884;8.696;2023-06-22T05:42:31;98652.19;;;21.72;100.00
22743;BME280;11538;48.884;8.696;2023-06-22T05:45:00;98635.66;;;21.76;100.00
22743;BME280;11538;48.884;8.696;2023-06-22T05:47:27;98642.41;;;21.79;100.00
22743;BME280;11538;48.884;8.696;2023-06-22T05:49:54;98646.41;;;21.85;100.00
22743;BME280;11538;48.884;8.696;2023-06-22T05:52:21;98646.47;;;21.92;100.00
22743;BME280;11538;48.884;8.696;2023-06-22T05:54:48;98641.81;;;22.00;100.00
22743;BME280;11538;48.884;8.696;2023-06-22T05:57:15;98647.78;;;22.05;100.00
22743;BME280;11538;48.884;8.696;2023-06-22T05:59:42;98641.91;;;22.07;100.00
22743;BME280;11538;48.884;8.696;2023-06-22T06:02:09;98639.16;;;22.11;100.00
22743;BME280;11538;48.884;8.696;2023-06-22T06:04:35;98646.25;;;22.12;100.00
22743;BME280;11538;48.884;8.696;2023-06-22T06:07:03;98654.19;;;22.17;100.00
22743;BME280;11538;48.884;8.696;2023-06-22T06:09:30;98651.88;;;22.23;100.00
22743;BME280;11538;48.884;8.696;2023-06-22T06:11:57;98651.13;;;22.26;100.00
22743;BME280;11538;48.884;8.696;2023-06-22T06:14:24;98650.34;;;22.29;100.00
22743;BME280;11538;48.884;8.696;2023-06-22T06:16:50;98646.44;;;22.33;100.00
22743;BME280;11538;48.884;8.696;2023-06-22T06:19:17;98644.13;;;22.43;100.00
22743;BME280;11538;48.884;8.696;2023-06-22T06:21:44;98645.41;;;22.49;100.00
22743;BME280;11538;48.884;8.696;2023-06-22T06:24:11;98642.72;;;22.56;100.00
22743;BME280;11538;48.884;8.696;2023-06-22T06:26:39;98645.88;;;22.58;100.00
22743;BME280;11538;48.884;8.696;2023-06-22T06:29:09;98649.47;;;22.62;100.00
22743;BME280;11538;48.884;8.696;2023-06-22T06:31:35;98650.69;;;22.69;100.00
22743;BME280;11538;48.884;8.696;2023-06-22T06:34:02;98651.91;;;22.78;100.00
22743;BME280;11538;48.884;8.696;2023-06-22T06:36:29;98651.59;;;22.87;100.00
22743;BME280;11538;48.884;8.696;2023-06-22T06:38:56;98646.88;;;22.95;100.00
22743;BME280;11538;48.884;8.696;2023-06-22T06:41:23;98644.53;;;23.01;100.00
22743;BME280;11538;48.884;8.696;2023-06-22T06:43:50;98639.41;;;23.06;100.00
22743;BME280;11538;48.884;8.696;2023-06-22T06:46:17;98651.28;;;23.11;100.00
22743;BME280;11538;48.884;8.696;2023-06-22T06:48:47;98639.06;;;23.15;100.00
22743;BME280;11538;48.884;8.696;2023-06-22T06:51:14;98631.22;;;23.21;99.43
22743;BME280;11538;48.884;8.696;2023-06-22T06:53:40;98628.09;;;23.26;98.18
22743;BME280;11538;48.884;8.696;2023-06-22T06:56:07;98611.13;;;23.35;98.41
22743;BME280;11538;48.884;8.696;2023-06-22T06:58:40;98596.50;;;23.45;97.43
22743;BME280;11538;48.884;8.696;2023-06-22T07:01:08;98599.72;;;23.58;96.72
22743;BME280;11538;48.884;8.696;2023-06-22T07:03:36;98594.56;;;23.71;96.05
22743;BME280;11538;48.884;8.696;2023-06-22T07:06:02;98585.50;;;23.81;94.42
22743;BME280;11538;48.884;8.696;2023-06-22T07:08:30;98590.25;;;23.95;94.10
22743;BME280;11538;48.884;8.696;2023-06-22T07:10:59;98590.28;;;24.03;92.46
22743;BME280;11538;48.884;8.696;2023-06-22T07:13:27;98593.06;;;24.14;92.57
22743;BME280;11538;48.884;8.696;2023-06-22T07:15:54;98597.41;;;24.26;91.31
22743;BME280;11538;48.884;8.696;2023-06-22T07:18:21;98579.59;;;24.30;90.34
22743;BME280;11538;48.884;8.696;2023-06-22T07:20:49;98579.97;;;24.39;90.34
22743;BME280;11538;48.884;8.696;2023-06-22T07:23:17;98579.94;;;24.54;89.55
22743;BME280;11538;48.884;8.696;2023-06-22T07:25:44;98585.84;;;24.71;87.74
22743;BME280;11538;48.884;8.696;2023-06-22T07:28:10;98589.00;;;24.84;87.48
22743;BME280;11538;48.884;8.696;2023-06-22T07:30:37;98594.16;;;24.85;86.87
22743;BME280;11538;48.884;8.696;2023-06-22T07:33:04;98589.81;;;24.77;87.04
22743;BME280;11538;48.884;8.696;2023-06-22T07:35:35;98588.63;;;24.71;86.95
22743;BME280;11538;48.884;8.696;2023-06-22T07:38:02;98583.06;;;24.78;85.84
22743;BME280;11538;48.884;8.696;2023-06-22T07:40:32;98582.22;;;24.95;85.16
22743;BME280;11538;48.884;8.696;2023-06-22T07:43:00;98585.31;;;25.12;84.19
22743;BME280;11538;48.884;8.696;2023-06-22T07:45:27;98582.13;;;25.24;83.78
22743;BME280;11538;48.884;8.696;2023-06-22T07:47:53;98580.06;;;25.36;82.15
22743;BME280;11538;48.884;8.696;2023-06-22T07:50:20;98573.28;;;25.44;81.04
22743;BME280;11538;48.884;8.696;2023-06-22T07:52:48;98572.03;;;25.60;80.36
22743;BME280;11538;48.884;8.696;2023-06-22T07:55:15;98570.28;;;25.77;81.04
22743;BME280;11538;48.884;8.696;2023-06-22T07:57:42;98574.97;;;25.91;76.87
22743;BME280;11538;48.884;8.696;2023-06-22T08:00:10;98575.22;;;26.07;77.63
22743;BME280;11538;48.884;8.696;2023-06-22T08:02:47;98569.88;;;26.31;79.65
22743;BME280;11538;48.884;8.696;2023-06-22T08:05:15;98572.47;;;26.49;76.67
22743;BME280;11538;48.884;8.696;2023-06-22T08:07:45;98584.88;;;26.41;74.77
22743;BME280;11538;48.884;8.696;2023-06-22T08:10:14;98573.38;;;26.39;75.62
22743;BME280;11538;48.884;8.696;2023-06-22T08:12:42;98575.03;;;26.71;74.04
22743;BME280;11538;48.884;8.696;2023-06-22T08:15:09;98571.00;;;26.76;74.40
22743;BME280;11538;48.884;8.696;2023-06-22T08:17:38;98574.63;;;26.73;75.54
22743;BME280;11538;48.884;8.696;2023-06-22T08:20:07;98577.41;;;26.73;75.95
22743;BME280;11538;48.884;8.696;2023-06-22T08:22:40;98582.53;;;26.78;75.17
22743;BME280;11538;48.884;8.696;2023-06-22T08:25:09;98587.25;;;26.81;75.86
22743;BME280;11538;48.884;8.696;2023-06-22T08:27:36;98595.16;;;26.86;74.77
22743;BME280;11538;48.884;8.696;2023-06-22T08:30:04;98622.69;;;26.73;73.15
22743;BME280;11538;48.884;8.696;2023-06-22T08:32:31;98633.88;;;26.69;75.02
22743;BME280;11538;48.884;8.696;2023-06-22T08:35:01;98662.91;;;26.68;74.18
22743;BME280;11538;48.884;8.696;2023-06-22T08:37:28;98727.38;;;26.56;74.90
22743;BME280;11538;48.884;8.696;2023-06-22T08:40:00;98698.47;;;26.42;73.75
22743;BME280;11538;48.884;8.696;2023-06-22T08:42:27;98664.78;;;26.33;74.09
22743;BME280;11538;48.884;8.696;2023-06-22T08:44:55;98648.59;;;26.24;76.16
22743;BME280;11538;48.884;8.696;2023-06-22T08:47:22;98611.63;;;26.24;77.96
22743;BME280;11538;48.884;8.696;2023-06-22T08:49:50;98573.53;;;26.24;78.36
22743;BME280;11538;48.884;8.696;2023-06-22T08:52:18;98524.25;;;26.28;79.23
22743;BME280;11538;48.884;8.696;2023-06-22T08:54:47;98520.66;;;26.28;79.35
22743;BME280;11538;48.884;8.696;2023-06-22T08:57:15;98533.72;;;26.35;80.06
22743;BME280;11538;48.884;8.696;2023-06-22T08:59:42;98555.63;;;26.64;78.67
22743;BME280;11538;48.884;8.696;2023-06-22T09:02:09;98575.00;;;27.09;75.65
22743;BME280;11538;48.884;8.696;2023-06-22T09:04:36;98564.16;;;27.46;73.59
22743;BME280;11538;48.884;8.696;2023-06-22T09:07:04;98554.81;;;27.87;71.43
22743;BME280;11538;48.884;8.696;2023-06-22T09:09:32;98556.78;;;28.14;70.75
22743;BME280;11538;48.884;8.696;2023-06-22T09:11:58;98562.97;;;28.26;70.15
22743;BME280;11538;48.884;8.696;2023-06-22T09:14:25;98554.47;;;28.33;74.01
22743;BME280;11538;48.884;8.696;2023-06-22T09:16:52;98560.72;;;28.61;68.12
22743;BME280;11538;48.884;8.696;2023-06-22T09:19:19;98571.56;;;28.79;64.69
22743;BME280;11538;48.884;8.696;2023-06-22T09:21:46;98572.53;;;29.09;66.49
22743;BME280;11538;48.884;8.696;2023-06-22T09:24:13;98559.53;;;29.39;64.83
22743;BME280;11538;48.884;8.696;2023-06-22T09:26:40;98570.66;;;29.59;63.58
22743;BME280;11538;48.884;8.696;2023-06-22T09:29:07;98565.25;;;29.52;64.76
22743;BME280;11538;48.884;8.696;2023-06-22T09:31:37;98548.75;;;29.74;64.60
22743;BME280;11538;48.884;8.696;2023-06-22T09:34:05;98543.88;;;29.95;62.59
22743;BME280;11538;48.884;8.696;2023-06-22T09:36:32;98545.88;;;30.11;62.98
22743;BME280;11538;48.884;8.696;2023-06-22T09:38:59;98548.47;;;30.18;60.55
22743;BME280;11538;48.884;8.696;2023-06-22T09:41:28;98535.56;;;30.08;62.03
22743;BME280;11538;48.884;8.696;2023-06-22T09:43:55;98531.19;;;29.90;64.04
22743;BME280;11538;48.884;8.696;2023-06-22T09:46:23;98533.28;;;29.70;63.31
22743;BME280;11538;48.884;8.696;2023-06-22T09:48:52;98538.59;;;29.64;65.58
22743;BME280;11538;48.884;8.696;2023-06-22T09:51:19;98533.19;;;29.57;65.21
22743;BME280;11538;48.884;8.696;2023-06-22T09:53:48;98534.75;;;29.58;65.15
22743;BME280;11538;48.884;8.696;2023-06-22T09:56:15;98527.34;;;30.01;64.82
22743;BME280;11538;48.884;8.696;2023-06-22T09:58:43;98531.34;;;30.16;63.75
22743;BME280;11538;48.884;8.696;2023-06-22T10:01:11;98519.75;;;30.18;64.91
22743;BME280;11538;48.884;8.696;2023-06-22T10:03:38;98509.31;;;30.18;64.67
22743;BME280;11538;48.884;8.696;2023-06-22T10:06:05;98500.78;;;30.09;65.40
22743;BME280;11538;48.884;8.696;2023-06-22T10:08:31;98495.53;;;29.95;66.50
22743;BME280;11538;48.884;8.696;2023-06-22T10:10:58;98486.38;;;29.77;64.33
22743;BME280;11538;48.884;8.696;2023-06-22T10:13:25;98484.75;;;29.64;65.44
22743;BME280;11538;48.884;8.696;2023-06-22T10:15:52;98491.72;;;29.55;65.18
22743;BME280;11538;48.884;8.696;2023-06-22T10:18:20;98497.84;;;29.50;65.91
22743;BME280;11538;48.884;8.696;2023-06-22T10:20:50;98498.25;;;29.48;66.77
22743;BME280;11538;48.884;8.696;2023-06-22T10:23:20;98487.19;;;29.45;66.92
22743;BME280;11538;48.884;8.696;2023-06-22T10:25:48;98478.34;;;29.46;65.97
22743;BME280;11538;48.884;8.696;2023-06-22T10:28:15;98478.97;;;29.54;66.87
22743;BME280;11538;48.884;8.696;2023-06-22T10:30:43;98479.56;;;29.62;65.74
22743;BME280;11538;48.884;8.696;2023-06-22T10:33:11;98479.84;;;29.68;66.53
22743;BME280;11538;48.884;8.696;2023-06-22T10:35:38;98481.75;;;29.71;63.74
22743;BME280;11538;48.884;8.696;2023-06-22T10:38:06;98476.59;;;29.69;64.70
22743;BME280;11538;48.884;8.696;2023-06-22T10:40:33;98480.03;;;29.60;66.17
22743;BME280;11538;48.884;8.696;2023-06-22T10:43:00;98473.91;;;29.49;67.09
22743;BME280;11538;48.884;8.696;2023-06-22T10:45:27;98477.25;;;29.44;67.00
22743;BME280;11538;48.884;8.696;2023-06-22T10:47:55;98481.69;;;29.41;66.13
22743;BME280;11538;48.884;8.696;2023-06-22T10:50:22;98483.34;;;29.39;66.56
22743;BME280;11538;48.884;8.696;2023-06-22T10:52:51;98472.00;;;29.46;67.30
22743;BME280;11538;48.884;8.696;2023-06-22T10:55:18;98470.25;;;29.52;66.03
22743;BME280;11538;48.884;8.696;2023-06-22T10:57:45;98477.41;;;29.53;66.58
22743;BME280;11538;48.884;8.696;2023-06-22T11:00:14;98474.16;;;29.55;67.49
22743;BME280;11538;48.884;8.696;2023-06-22T11:02:43;98470.06;;;29.59;66.65
22743;BME280;11538;48.884;8.696;2023-06-22T11:05:11;98477.47;;;29.66;65.64
22743;BME280;11538;48.884;8.696;2023-06-22T11:07:43;98470.41;;;29.78;66.77
22743;BME280;11538;48.884;8.696;2023-06-22T11:10:12;98477.72;;;29.88;66.39
22743;BME280;11538;48.884;8.696;2023-06-22T11:12:39;98477.53;;;29.96;67.07
22743;BME280;11538;48.884;8.696;2023-06-22T11:15:06;98474.91;;;30.05;66.73
22743;BME280;11538;48.884;8.696;2023-06-22T11:17:34;98479.97;;;30.10;65.35
22743;BME280;11538;48.884;8.696;2023-06-22T11:20:01;98466.13;;;30.19;65.77
22743;BME280;11538;48.884;8.696;2023-06-22T11:22:31;98472.22;;;30.31;65.51
22743;BME280;11538;48.884;8.696;2023-06-22T11:25:00;98473.50;;;30.43;65.32
22743;BME280;11538;48.884;8.696;2023-06-22T11:27:27;98471.03;;;30.45;65.61
22743;BME280;11538;48.884;8.696;2023-06-22T11:29:54;98468.88;;;30.36;66.22
22743;BME280;11538;48.884;8.696;2023-06-22T11:32:22;98463.06;;;30.30;66.25
22743;BME280;11538;48.884;8.696;2023-06-22T11:34:49;98454.06;;;30.23;66.89
22743;BME280;11538;48.884;8.696;2023-06-22T11:37:16;98447.75;;;30.05;66.02
22743;BME280;11538;48.884;8.696;2023-06-22T11:39:43;98444.97;;;29.89;66.88
22743;BME280;11538;48.884;8.696;2023-06-22T11:42:19;98447.34;;;29.74;68.73
22743;BME280;11538;48.884;8.696;2023-06-22T11:44:46;98443.69;;;29.60;68.42
22743;BME280;11538;48.884;8.696;2023-06-22T11:47:13;98441.50;;;29.52;69.46
22743;BME280;11538;48.884;8.696;2023-06-22T11:49:41;98450.59;;;29.39;70.21
22743;BME280;11538;48.884;8.696;2023-06-22T11:52:08;98449.69;;;29.26;70.55
22743;BME280;11538;48.884;8.696;2023-06-22T11:54:35;98451.53;;;29.16;71.29
22743;BME280;11538;48.884;8.696;2023-06-22T11:57:02;98453.69;;;29.08;71.84
22743;BME280;11538;48.884;8.696;2023-06-22T11:59:29;98458.22;;;29.02;72.07
22743;BME280;11538;48.884;8.696;2023-06-22T12:01:57;98455.50;;;28.98;71.58
22743;BME280;11538;48.884;8.696;2023-06-22T12:04:25;98454.72;;;28.98;72.01
22743;BME280;11538;48.884;8.696;2023-06-22T12:06:52;98464.31;;;28.97;71.64
22743;BME280;11538;48.884;8.696;2023-06-22T12:09:19;98465.91;;;28.98;72.16
22743;BME280;11538;48.884;8.696;2023-06-22T12:11:45;98475.41;;;29.00;72.08
22743;BME280;11538;48.884;8.696;2023-06-22T12:14:12;98484.56;;;29.01;71.52
22743;BME280;11538;48.884;8.696;2023-06-22T12:16:39;98491.38;;;29.00;70.95
22743;BME280;11538;48.884;8.696;2023-06-22T12:19:06;98496.16;;;28.99;71.48
22743;BME280;11538;48.884;8.696;2023-06-22T12:21:33;98507.25;;;29.03;71.49
22743;BME280;11538;48.884;8.696;2023-06-22T12:24:00;98503.84;;;29.12;71.28
22743;BME280;11538;48.884;8.696;2023-06-22T12:26:26;98503.56;;;29.26;70.88
22743;BME280;11538;48.884;8.696;2023-06-22T12:28:53;98496.78;;;29.44;70.61
22743;BME280;11538;48.884;8.696;2023-06-22T12:31:20;98494.25;;;29.66;70.13
22743;BME280;11538;48.884;8.696;2023-06-22T12:33:47;98498.09;;;30.05;68.50
22743;BME280;11538;48.884;8.696;2023-06-22T12:36:14;98491.56;;;30.55;66.69
22743;BME280;11538;48.884;8.696;2023-06-22T12:38:43;98485.03;;;30.74;64.87
22743;BME280;11538;48.884;8.696;2023-06-22T12:41:09;98486.81;;;30.81;64.78
22743;BME280;11538;48.884;8.696;2023-06-22T12:43:36;98480.91;;;30.92;65.18
22743;BME280;11538;48.884;8.696;2023-06-22T12:46:03;98479.34;;;30.91;64.36
22743;BME280;11538;48.884;8.696;2023-06-22T12:48:33;98485.84;;;30.88;64.03
22743;BME280;11538;48.884;8.696;2023-06-22T12:51:00;98482.78;;;30.82;63.79
22743;BME280;11538;48.884;8.696;2023-06-22T12:53:27;98470.47;;;30.80;63.72
22743;BME280;11538;48.884;8.696;2023-06-22T12:55:55;98465.53;;;30.71;64.29
22743;BME280;11538;48.884;8.696;2023-06-22T12:58:22;98464.53;;;30.77;65.21
22743;BME280;11538;48.884;8.696;2023-06-22T13:00:49;98473.63;;;30.82;65.26
22743;BME280;11538;48.884;8.696;2023-06-22T13:03:16;98470.47;;;30.92;65.57